createdAt,value
2023-02-28T00:00:16.569Z,3.05
2023-02-28T00:02:47.132Z,2.72
2023-02-28T00:05:20.037Z,2.92
2023-02-28T00:07:50.480Z,2.88
2023-02-28T00:10:28.851Z,2.85
2023-02-28T00:13:05.562Z,2.83
2023-02-28T00:15:35.786Z,3.00
2023-02-28T00:18:04.805Z,2.90
2023-02-28T00:20:34.698Z,3.30
2023-02-28T00:23:03.676Z,3.30
2023-02-28T00:25:32.350Z,3.10
2023-02-28T00:28:01.916Z,3.35
2023-02-28T00:30:30.524Z,2.90
2023-02-28T00:33:00.888Z,3.25
2023-02-28T00:35:30.732Z,3.38
2023-02-28T00:38:00.855Z,3.42
2023-02-28T00:40:32.591Z,3.20
2023-02-28T00:43:02.857Z,3.33
2023-02-28T00:45:32.266Z,3.33
2023-02-28T00:48:01.101Z,3.45
2023-02-28T00:50:31.614Z,3.50
2023-02-28T00:53:01.582Z,3.25
2023-02-28T00:55:30.403Z,2.72
2023-02-28T00:57:59.841Z,2.60
2023-02-28T01:00:30.330Z,2.95
2023-02-28T01:02:59.755Z,3.08
2023-02-28T01:05:29.351Z,2.88
2023-02-28T01:08:00.022Z,3.25
2023-02-28T01:10:32.992Z,2.78
2023-02-28T01:13:03.505Z,2.63
2023-02-28T01:15:34.228Z,2.40
2023-02-28T01:18:03.748Z,2.80
2023-02-28T01:20:34.587Z,2.92
2023-02-28T01:23:04.191Z,2.80
2023-02-28T01:25:36.005Z,2.78
2023-02-28T01:28:08.478Z,2.60
2023-02-28T01:30:36.958Z,2.95
2023-02-28T01:33:06.426Z,2.92
2023-02-28T01:35:38.855Z,3.00
2023-02-28T01:38:21.201Z,3.05
2023-02-28T01:40:51.706Z,3.13
2023-02-28T01:43:44.264Z,3.00
2023-02-28T01:46:15.633Z,2.85
2023-02-28T01:49:00.615Z,3.15
2023-02-28T01:51:36.846Z,2.88
2023-02-28T01:54:15.674Z,2.85
2023-02-28T01:56:51.336Z,3.20
2023-02-28T01:59:34.225Z,3.05
2023-02-28T02:02:04.178Z,2.67
2023-02-28T02:04:45.225Z,3.10
2023-02-28T02:07:18.532Z,2.72
2023-02-28T02:09:50.490Z,2.72
2023-02-28T02:13:04.352Z,3.20
2023-02-28T02:16:03.860Z,2.63
2023-02-28T02:18:54.388Z,3.00
2023-02-28T02:21:56.518Z,3.15
2023-02-28T02:24:33.130Z,2.80
2023-02-28T02:27:13.918Z,2.95
2023-02-28T02:29:59.232Z,3.17
2023-02-28T02:32:40.817Z,2.80
2023-02-28T02:35:14.235Z,3.00
2023-02-28T02:37:52.526Z,3.20
2023-02-28T02:40:32.048Z,2.97
2023-02-28T02:43:15.972Z,2.75
2023-02-28T02:45:58.537Z,3.00
2023-02-28T02:48:31.934Z,2.88
2023-02-28T02:51:05.908Z,3.22
2023-02-28T02:53:40.960Z,3.47
2023-02-28T02:56:11.510Z,3.25
2023-02-28T02:58:44.025Z,3.40
2023-02-28T03:01:17.725Z,3.35
2023-02-28T03:03:49.774Z,3.30
2023-02-28T03:06:18.874Z,3.15
2023-02-28T03:08:46.988Z,3.22
2023-02-28T03:11:19.426Z,3.20
2023-02-28T03:13:59.280Z,3.05
2023-02-28T03:16:36.126Z,3.22
2023-02-28T03:19:25.783Z,3.67
2023-02-28T03:22:20.011Z,3.03
2023-02-28T03:25:04.254Z,3.00
2023-02-28T03:28:04.323Z,3.10
2023-02-28T03:30:56.591Z,2.90
2023-02-28T03:33:49.737Z,2.78
2023-02-28T03:36:22.804Z,2.60
2023-02-28T03:39:04.193Z,2.58
2023-02-28T03:41:40.507Z,2.60
2023-02-28T03:44:44.647Z,2.60
2023-02-28T03:47:34.189Z,2.80
2023-02-28T03:50:37.028Z,2.83
2023-02-28T03:53:22.869Z,2.42
2023-02-28T03:56:00.357Z,2.60
2023-02-28T03:59:27.968Z,2.80
2023-02-28T04:01:57.153Z,2.65
2023-02-28T04:04:28.503Z,2.58
2023-02-28T04:07:05.666Z,2.33
2023-02-28T04:09:34.711Z,2.65
2023-02-28T04:12:03.281Z,2.53
2023-02-28T04:14:32.310Z,2.70
2023-02-28T04:17:01.185Z,2.72
2023-02-28T04:19:30.360Z,2.75
2023-02-28T04:22:00.247Z,2.90
2023-02-28T04:24:30.680Z,2.58
2023-02-28T04:27:01.120Z,2.60
2023-02-28T04:29:36.179Z,2.90
2023-02-28T04:32:06.562Z,2.80
2023-02-28T04:34:35.530Z,2.70
2023-02-28T04:37:13.994Z,2.60
2023-02-28T04:39:44.284Z,2.50
2023-02-28T04:42:14.010Z,2.40
2023-02-28T04:44:42.874Z,2.47
2023-02-28T04:47:12.601Z,2.33
2023-02-28T04:49:42.877Z,2.28
2023-02-28T04:52:11.903Z,2.35
2023-02-28T04:54:41.062Z,2.10
2023-02-28T04:57:10.297Z,2.30
2023-02-28T04:59:38.735Z,2.20
2023-02-28T05:02:08.829Z,2.47
2023-02-28T05:04:38.816Z,2.50
2023-02-28T05:07:08.340Z,2.13
2023-02-28T05:09:36.714Z,2.40
2023-02-28T05:12:05.012Z,2.40
2023-02-28T05:14:34.720Z,2.20
2023-02-28T05:17:02.918Z,2.10
2023-02-28T05:19:32.004Z,2.28
2023-02-28T05:22:01.791Z,2.13
2023-02-28T05:24:30.740Z,2.13
2023-02-28T05:27:00.677Z,2.08
2023-02-28T05:29:30.842Z,2.20
2023-02-28T05:32:02.488Z,2.40
2023-02-28T05:34:33.022Z,2.05
2023-02-28T05:37:02.808Z,2.25
2023-02-28T05:39:32.582Z,2.30
2023-02-28T05:42:03.329Z,2.10
2023-02-28T05:44:32.284Z,1.88
2023-02-28T05:47:01.419Z,2.20
2023-02-28T05:49:32.817Z,2.30
2023-02-28T05:52:04.919Z,2.20
2023-02-28T05:54:35.240Z,1.90
2023-02-28T05:57:10.025Z,1.92
2023-02-28T05:59:42.586Z,2.10
2023-02-28T06:02:16.381Z,1.92
2023-02-28T06:04:45.295Z,1.92
2023-02-28T06:07:14.628Z,2.05
2023-02-28T06:09:44.181Z,2.00
2023-02-28T06:12:14.607Z,1.83
2023-02-28T06:14:43.827Z,2.00
2023-02-28T06:17:13.222Z,2.10
2023-02-28T06:19:43.577Z,1.80
2023-02-28T06:22:12.850Z,1.60
2023-02-28T06:24:42.374Z,2.00
2023-02-28T06:27:10.907Z,1.90
2023-02-28T06:29:41.301Z,1.80
2023-02-28T06:32:11.376Z,1.85
2023-02-28T06:34:40.609Z,2.00
2023-02-28T06:37:10.687Z,1.85
2023-02-28T06:39:40.506Z,1.90
2023-02-28T06:42:08.864Z,1.67
2023-02-28T06:44:38.301Z,1.70
2023-02-28T06:47:08.336Z,1.90
2023-02-28T06:49:38.397Z,1.98
2023-02-28T06:52:07.861Z,1.63
2023-02-28T06:54:38.678Z,1.70
2023-02-28T06:57:07.957Z,1.90
2023-02-28T06:59:38.787Z,1.80
2023-02-28T07:02:08.997Z,1.52
2023-02-28T07:04:38.623Z,2.00
2023-02-28T07:07:08.091Z,1.90
2023-02-28T07:09:37.297Z,1.98
2023-02-28T07:12:06.933Z,1.73
2023-02-28T07:14:40.737Z,2.08
2023-02-28T07:17:10.788Z,1.75
2023-02-28T07:19:40.901Z,1.80
2023-02-28T07:22:13.727Z,1.65
2023-02-28T07:24:45.232Z,1.90
2023-02-28T07:27:25.198Z,2.00
2023-02-28T07:29:58.033Z,1.70
2023-02-28T07:32:28.204Z,1.70
2023-02-28T07:34:59.522Z,1.60
2023-02-28T07:37:32.875Z,1.83
2023-02-28T07:40:02.937Z,1.80
2023-02-28T07:42:32.136Z,1.88
2023-02-28T07:45:01.389Z,1.90
2023-02-28T07:47:35.432Z,2.00
2023-02-28T07:50:04.588Z,1.95
2023-02-28T07:52:35.240Z,1.73
2023-02-28T07:55:06.869Z,1.90
2023-02-28T07:57:37.197Z,1.80
2023-02-28T08:00:11.229Z,1.73
2023-02-28T08:02:43.186Z,1.90
2023-02-28T08:05:12.473Z,1.83
2023-02-28T08:07:41.354Z,1.88
2023-02-28T08:10:12.553Z,1.70
2023-02-28T08:12:42.464Z,1.85
2023-02-28T08:15:12.003Z,1.85
2023-02-28T08:17:41.095Z,2.00
2023-02-28T08:20:11.975Z,1.90
2023-02-28T08:22:42.487Z,1.98
2023-02-28T08:25:13.173Z,2.20
2023-02-28T08:27:47.407Z,2.03
2023-02-28T08:30:16.748Z,2.20
2023-02-28T08:32:45.175Z,1.90
2023-02-28T08:35:16.225Z,2.20
2023-02-28T08:37:45.336Z,2.17
2023-02-28T08:40:20.173Z,2.40
2023-02-28T08:42:50.454Z,2.08
2023-02-28T08:45:18.869Z,2.10
2023-02-28T08:47:48.526Z,2.17
2023-02-28T08:50:18.572Z,2.42
2023-02-28T08:52:48.183Z,2.10
2023-02-28T08:55:17.319Z,2.20
2023-02-28T08:57:47.656Z,2.20
2023-02-28T09:00:17.091Z,2.38
2023-02-28T09:02:48.558Z,2.20
2023-02-28T09:05:17.048Z,2.33
2023-02-28T09:07:50.393Z,2.30
2023-02-28T09:10:19.002Z,2.40
2023-02-28T09:12:48.785Z,2.50
2023-02-28T09:15:21.546Z,2.15
2023-02-28T09:17:51.102Z,1.98
2023-02-28T09:20:20.222Z,2.42
2023-02-28T09:22:50.636Z,2.35
2023-02-28T09:25:20.109Z,2.20
2023-02-28T09:27:49.969Z,2.20
2023-02-28T09:30:20.287Z,2.25
2023-02-28T09:32:53.567Z,2.30
2023-02-28T09:35:28.222Z,2.50
2023-02-28T09:38:01.220Z,2.00
2023-02-28T09:40:31.945Z,2.30
2023-02-28T09:43:04.487Z,2.38
2023-02-28T09:45:38.920Z,2.40
2023-02-28T09:48:20.125Z,2.40
2023-02-28T09:50:52.956Z,2.30
2023-02-28T09:53:41.065Z,2.00
2023-02-28T09:56:21.699Z,2.15
2023-02-28T09:59:00.708Z,2.25
2023-02-28T10:01:44.798Z,2.30
2023-02-28T10:04:38.937Z,2.25
2023-02-28T10:07:32.260Z,2.22
2023-02-28T10:10:11.060Z,2.00
2023-02-28T10:12:47.322Z,2.38
2023-02-28T10:15:20.332Z,2.20
2023-02-28T10:18:08.537Z,2.20
2023-02-28T10:20:41.869Z,2.17
2023-02-28T10:23:34.999Z,2.20
2023-02-28T10:26:14.978Z,2.28
2023-02-28T10:28:45.452Z,2.40
2023-02-28T10:31:21.152Z,2.10
2023-02-28T10:33:53.184Z,2.20
2023-02-28T10:36:24.545Z,2.15
2023-02-28T10:39:01.076Z,2.17
2023-02-28T10:41:37.995Z,2.27
2023-02-28T10:44:22.844Z,2.10
2023-02-28T10:46:54.925Z,2.00
2023-02-28T10:49:31.436Z,2.00
2023-02-28T10:52:03.033Z,2.00
2023-02-28T10:54:36.649Z,2.05
2023-02-28T10:57:31.089Z,2.10
2023-02-28T11:00:20.461Z,2.13
2023-02-28T11:02:50.799Z,2.00
2023-02-28T11:05:27.059Z,2.40
2023-02-28T11:08:20.499Z,1.98
2023-02-28T11:10:58.736Z,1.95
2023-02-28T11:13:33.305Z,2.10
2023-02-28T11:16:07.028Z,2.00
2023-02-28T11:18:41.094Z,1.95
2023-02-28T11:21:18.718Z,2.08
2023-02-28T11:23:49.448Z,1.83
2023-02-28T11:26:45.001Z,1.98
2023-02-28T11:29:18.677Z,2.00
2023-02-28T11:32:11.288Z,1.90
2023-02-28T11:34:44.517Z,1.90
2023-02-28T11:37:23.329Z,1.90
2023-02-28T11:39:52.843Z,1.90
2023-02-28T11:42:32.517Z,2.05
2023-02-28T11:45:20.058Z,2.22
2023-02-28T11:47:59.180Z,1.88
2023-02-28T11:51:15.135Z,2.05
2023-02-28T11:53:56.370Z,2.03
2023-02-28T11:56:38.715Z,2.10
2023-02-28T11:59:45.467Z,2.10
2023-02-28T12:02:32.110Z,2.00
2023-02-28T12:05:13.645Z,2.10
2023-02-28T12:07:55.193Z,2.08
2023-02-28T12:10:24.889Z,2.13
2023-02-28T12:13:17.239Z,1.92
2023-02-28T12:16:25.227Z,2.00
2023-02-28T12:19:22.086Z,1.90
2023-02-28T12:22:05.041Z,2.00
2023-02-28T12:24:46.774Z,2.03
2023-02-28T12:27:19.949Z,1.80
2023-02-28T12:29:59.488Z,2.10
2023-02-28T12:32:34.654Z,1.90
2023-02-28T12:35:16.637Z,2.00
2023-02-28T12:37:53.344Z,1.95
2023-02-28T12:40:29.096Z,2.00
2023-02-28T12:43:11.265Z,2.00
2023-02-28T12:45:43.684Z,2.13
2023-02-28T12:48:23.114Z,2.10
2023-02-28T12:50:53.395Z,1.98
2023-02-28T12:53:49.491Z,2.00
2023-02-28T12:56:33.147Z,2.00
2023-02-28T12:59:24.674Z,2.10
2023-02-28T13:02:18.022Z,2.15
2023-02-28T13:05:25.367Z,2.00
2023-02-28T13:08:08.709Z,1.92
2023-02-28T13:10:48.838Z,2.03
2023-02-28T13:13:21.507Z,2.20
2023-02-28T13:16:01.487Z,2.05
2023-02-28T13:18:41.100Z,2.05
2023-02-28T13:21:29.334Z,2.38
2023-02-28T13:24:04.680Z,2.17
2023-02-28T13:26:40.648Z,2.40
2023-02-28T13:29:13.241Z,2.25
2023-02-28T13:32:09.784Z,2.63
2023-02-28T13:35:06.072Z,2.38
2023-02-28T13:37:44.520Z,2.38
2023-02-28T13:40:31.103Z,2.30
2023-02-28T13:43:01.344Z,2.40
2023-02-28T13:45:40.445Z,2.40
2023-02-28T13:48:29.305Z,2.50
2023-02-28T13:51:00.835Z,2.40
2023-02-28T13:54:01.321Z,2.58
2023-02-28T13:57:24.331Z,2.45
2023-02-28T14:00:20.313Z,2.25
2023-02-28T14:03:29.925Z,2.40
2023-02-28T14:06:17.889Z,2.15
2023-02-28T14:09:12.435Z,2.55
2023-02-28T14:11:44.663Z,2.65
2023-02-28T14:14:38.940Z,2.53
2023-02-28T14:17:15.228Z,2.30
2023-02-28T14:19:49.456Z,2.53
2023-02-28T14:22:45.821Z,2.50
2023-02-28T14:25:33.919Z,2.53
2023-02-28T14:28:40.603Z,2.60
2023-02-28T14:31:21.261Z,2.50
2023-02-28T14:34:01.451Z,2.50
2023-02-28T14:36:41.078Z,2.70
2023-02-28T14:39:18.339Z,2.28
2023-02-28T14:41:48.601Z,2.70
2023-02-28T14:44:28.555Z,2.28
2023-02-28T14:47:08.347Z,2.15
2023-02-28T14:49:47.969Z,2.58
2023-02-28T14:52:20.443Z,2.30
2023-02-28T14:54:58.574Z,2.78
2023-02-28T14:57:32.965Z,2.47
2023-02-28T15:00:12.645Z,2.45
2023-02-28T15:02:43.820Z,2.45
2023-02-28T15:05:18.783Z,3.10
2023-02-28T15:10:26.801Z,2.20
2023-02-28T15:13:02.436Z,2.45
2023-02-28T15:16:06.332Z,2.33
2023-02-28T15:18:59.304Z,2.30
2023-02-28T15:21:41.111Z,2.47
2023-02-28T15:24:39.751Z,2.67
2023-02-28T15:27:23.481Z,2.53
2023-02-28T15:29:59.502Z,2.72
2023-02-28T15:32:33.084Z,2.45
2023-02-28T15:35:26.931Z,2.45
2023-02-28T15:38:01.662Z,2.30
2023-02-28T15:40:39.353Z,2.40
2023-02-28T15:43:26.941Z,2.28
2023-02-28T15:46:25.784Z,2.33
2023-02-28T15:49:00.734Z,2.53
2023-02-28T15:54:11.908Z,2.28
2023-02-28T15:56:48.837Z,2.45
2023-02-28T15:59:24.553Z,2.20
2023-02-28T16:02:23.908Z,2.13
2023-02-28T16:05:01.589Z,2.38
2023-02-28T16:07:41.584Z,2.17
2023-02-28T16:10:19.260Z,2.22
2023-02-28T16:12:49.518Z,2.22
2023-02-28T16:15:31.622Z,2.10
2023-02-28T16:18:04.251Z,1.95
2023-02-28T16:20:35.825Z,2.20
2023-02-28T16:23:07.142Z,1.90
2023-02-28T16:25:41.899Z,2.03
2023-02-28T16:28:25.688Z,2.20
2023-02-28T16:30:59.821Z,2.10
2023-02-28T16:33:32.815Z,2.33
2023-02-28T16:36:03.764Z,2.00
2023-02-28T16:38:36.975Z,2.10
2023-02-28T16:41:08.887Z,1.92
2023-02-28T16:43:41.325Z,2.00
2023-02-28T16:46:17.463Z,1.90
2023-02-28T16:48:52.819Z,2.08
2023-02-28T16:51:21.348Z,2.10
2023-02-28T16:53:52.802Z,2.25
2023-02-28T16:56:25.652Z,2.22
2023-02-28T16:59:04.402Z,2.20
2023-02-28T17:01:34.233Z,2.30
2023-02-28T17:04:05.673Z,2.25
2023-02-28T17:06:35.641Z,2.30
2023-02-28T17:09:05.750Z,2.38
2023-02-28T17:11:37.008Z,2.30
2023-02-28T17:14:08.805Z,2.10
2023-02-28T17:16:45.002Z,2.13
2023-02-28T17:19:22.557Z,2.08
2023-02-28T17:21:52.545Z,2.13
2023-02-28T17:24:30.846Z,2.10
2023-02-28T17:27:03.493Z,1.98
2023-02-28T17:29:33.976Z,2.50
2023-02-28T17:32:15.966Z,2.10
2023-02-28T17:34:48.829Z,2.22
2023-02-28T17:37:19.225Z,2.47
2023-02-28T17:39:49.676Z,2.35
2023-02-28T17:42:24.520Z,2.20
2023-02-28T17:44:55.590Z,2.28
2023-02-28T17:47:26.096Z,2.25
2023-02-28T17:49:59.819Z,2.03
2023-02-28T17:52:31.498Z,2.28
2023-02-28T17:55:02.233Z,1.98
2023-02-28T17:57:35.479Z,2.03
2023-02-28T18:00:46.248Z,2.10
2023-02-28T18:03:18.028Z,1.70
2023-02-28T18:05:48.974Z,1.92
2023-02-28T18:08:19.246Z,1.85
2023-02-28T18:10:49.716Z,2.00
2023-02-28T18:13:21.015Z,1.83
2023-02-28T18:16:01.425Z,2.05
2023-02-28T18:18:35.486Z,2.00
2023-02-28T18:21:20.450Z,1.88
2023-02-28T18:23:55.697Z,2.05
2023-02-28T18:26:25.233Z,2.00
2023-02-28T18:28:56.228Z,1.95
2023-02-28T18:31:27.434Z,1.90
2023-02-28T18:33:59.290Z,1.85
2023-02-28T18:36:31.858Z,1.75
2023-02-28T18:39:07.627Z,2.00
2023-02-28T18:41:37.837Z,1.90
2023-02-28T18:44:18.960Z,1.95
2023-02-28T18:46:50.375Z,1.80
2023-02-28T18:49:21.578Z,1.67
2023-02-28T18:51:51.737Z,1.88
2023-02-28T18:54:21.770Z,1.80
2023-02-28T18:57:01.647Z,1.85
2023-02-28T18:59:34.119Z,1.65
2023-02-28T19:02:05.596Z,1.65
2023-02-28T19:04:36.878Z,1.65
2023-02-28T19:07:08.618Z,1.70
2023-02-28T19:09:50.022Z,1.55
2023-02-28T19:12:37.476Z,1.85
2023-02-28T19:15:09.685Z,1.88
2023-02-28T19:17:41.637Z,1.80
2023-02-28T19:20:13.332Z,1.80
2023-02-28T19:22:44.518Z,1.70
2023-02-28T19:25:15.515Z,1.80
2023-02-28T19:27:47.772Z,1.63
2023-02-28T19:30:18.966Z,1.80
2023-02-28T19:32:48.962Z,1.67
2023-02-28T19:35:19.348Z,1.80
2023-02-28T19:37:49.391Z,1.60
2023-02-28T19:40:27.721Z,1.95
2023-02-28T19:43:06.223Z,1.85
2023-02-28T19:45:39.333Z,1.80
2023-02-28T19:48:11.371Z,1.70
2023-02-28T19:50:43.178Z,1.60
2023-02-28T19:53:13.128Z,1.63
2023-02-28T19:55:44.935Z,1.90
2023-02-28T19:58:21.337Z,1.60
2023-02-28T20:01:05.151Z,1.55
2023-02-28T20:03:37.873Z,1.50
2023-02-28T20:06:18.218Z,1.42
2023-02-28T20:08:49.492Z,1.30
2023-02-28T20:11:20.037Z,1.25
2023-02-28T20:13:49.622Z,1.42
2023-02-28T20:16:22.309Z,1.10
2023-02-28T20:18:53.609Z,1.30
2023-02-28T20:21:36.624Z,1.17
2023-02-28T20:24:08.924Z,1.20
2023-02-28T20:26:40.011Z,1.08
2023-02-28T20:29:11.113Z,1.25
2023-02-28T20:31:48.258Z,1.10
2023-02-28T20:34:19.321Z,1.15
2023-02-28T20:36:49.676Z,1.17
2023-02-28T20:39:22.057Z,1.25
2023-02-28T20:41:52.720Z,1.30
2023-02-28T20:44:25.032Z,1.10
2023-02-28T20:46:54.722Z,1.10
2023-02-28T20:49:24.823Z,0.80
2023-02-28T20:51:55.317Z,1.20
2023-02-28T20:57:09.087Z,1.17
2023-02-28T20:59:40.782Z,0.95
2023-02-28T21:02:16.971Z,1.30
2023-02-28T21:04:45.624Z,0.98
2023-02-28T21:07:20.623Z,0.98
2023-02-28T21:09:53.415Z,1.35
2023-02-28T21:12:31.507Z,1.00
2023-02-28T21:15:24.592Z,1.08
2023-02-28T21:18:13.563Z,0.95
2023-02-28T21:20:49.217Z,1.00
2023-02-28T21:23:19.417Z,1.10
2023-02-28T21:25:51.639Z,1.23
2023-02-28T21:28:21.535Z,1.00
2023-02-28T21:30:53.471Z,1.10
2023-02-28T21:36:49.310Z,0.93
2023-02-28T21:39:32.976Z,1.20
2023-02-28T21:42:05.072Z,1.15
2023-02-28T21:44:35.891Z,1.20
2023-02-28T21:47:05.902Z,1.13
2023-02-28T21:49:36.990Z,1.05
2023-02-28T21:52:08.218Z,1.13
2023-02-28T21:54:40.219Z,1.08
2023-02-28T21:57:18.030Z,1.17
2023-02-28T21:59:52.468Z,1.02
2023-02-28T22:02:23.673Z,1.50
2023-02-28T22:05:00.209Z,1.33
2023-02-28T22:07:32.794Z,1.40
2023-02-28T22:10:04.308Z,1.10
2023-02-28T22:12:40.673Z,1.40
2023-02-28T22:15:11.927Z,1.45
2023-02-28T22:21:25.175Z,1.33
2023-02-28T22:24:26.077Z,1.00
2023-02-28T22:37:17.446Z,1.35
2023-02-28T22:58:41.515Z,1.40
2023-02-28T23:02:11.586Z,1.50
2023-02-28T23:04:52.287Z,1.60
2023-02-28T23:07:26.140Z,1.50
2023-02-28T23:10:44.453Z,1.35
2023-02-28T23:13:21.742Z,1.20
2023-02-28T23:15:56.305Z,1.67
2023-02-28T23:18:41.616Z,1.48
2023-02-28T23:21:14.234Z,1.42
2023-02-28T23:23:48.335Z,1.40
2023-02-28T23:29:38.238Z,1.50
2023-02-28T23:32:12.105Z,1.42
2023-02-28T23:34:44.851Z,1.50
2023-02-28T23:37:16.702Z,1.50
2023-02-28T23:39:48.296Z,1.27
2023-02-28T23:42:20.852Z,1.50
2023-02-28T23:44:55.640Z,1.55
2023-02-28T23:47:45.007Z,1.67
2023-02-28T23:51:50.299Z,1.60
2023-02-28T23:54:24.560Z,1.42
2023-02-28T23:57:40.766Z,1.58
